sensor_id;sensor_type;location;lat;lon;timestamp;pressure;altitude;pressure_sealevel;temperature;humidity
5595;BME280;1003;48.002;7.788;2023-05-01T00:00:57;99006.28;;;12.35;100.00
5595;BME280;1003;48.002;7.788;2023-05-01T00:03:25;99018.25;;;12.24;100.00
5595;BME280;1003;48.002;7.788;2023-05-01T00:05:59;99036.16;;;12.11;100.00
5595;BME280;1003;48.002;7.788;2023-05-01T00:08:27;99043.84;;;12.03;100.00
5595;BME280;1003;48.002;7.788;2023-05-01T00:10:54;99068.19;;;12.04;100.00
5595;BME280;1003;48.002;7.788;2023-05-01T00:13:22;99079.28;;;11.94;100.00
5595;BME280;1003;48.002;7.788;2023-05-01T00:15:49;99099.56;;;11.86;100.00
5595;BME280;1003;48.002;7.788;2023-05-01T00:18:18;99101.25;;;11.86;100.00
5595;BME280;1003;48.002;7.788;2023-05-01T00:20:45;99113.03;;;11.83;100.00
5595;BME280;1003;48.002;7.788;2023-05-01T00:23:12;99118.13;;;11.77;100.00
5595;BME280;1003;48.002;7.788;2023-05-01T00:25:39;99154.22;;;11.79;100.00
5595;BME280;1003;48.002;7.788;2023-05-01T00:28:07;99188.69;;;11.74;100.00
5595;BME280;1003;48.002;7.788;2023-05-01T00:30:34;99214.63;;;11.78;100.00
5595;BME280;1003;48.002;7.788;2023-05-01T00:33:01;99260.81;;;11.78;100.00
5595;BME280;1003;48.002;7.788;2023-05-01T00:35:30;99264.13;;;11.80;100.00
5595;BME280;1003;48.002;7.788;2023-05-01T00:37:57;99299.41;;;11.82;100.00
5595;BME280;1003;48.002;7.788;2023-05-01T00:40:24;99294.34;;;11.83;100.00
5595;BME280;1003;48.002;7.788;2023-05-01T00:42:51;99283.41;;;11.86;100.00
5595;BME280;1003;48.002;7.788;2023-05-01T00:45:19;99298.41;;;11.94;100.00
5595;BME280;1003;48.002;7.788;2023-05-01T00:47:46;99276.47;;;12.02;100.00
5595;BME280;1003;48.002;7.788;2023-05-01T00:50:13;99207.41;;;12.14;100.00
5595;BME280;1003;48.002;7.788;2023-05-01T00:52:42;99138.47;;;12.19;100.00
5595;BME280;1003;48.002;7.788;2023-05-01T00:55:09;99043.28;;;12.33;100.00
5595;BME280;1003;48.002;7.788;2023-05-01T00:57:36;99004.72;;;12.30;100.00
5595;BME280;1003;48.002;7.788;2023-05-01T01:00:04;98984.59;;;12.28;100.00
5595;BME280;1003;48.002;7.788;2023-05-01T01:02:33;98951.00;;;12.26;100.00
5595;BME280;1003;48.002;7.788;2023-05-01T01:05:00;98931.75;;;12.24;100.00
5595;BME280;1003;48.002;7.788;2023-05-01T01:07:39;98901.47;;;12.25;100.00
5595;BME280;1003;48.002;7.788;2023-05-01T01:10:16;98866.25;;;12.24;100.00
5595;BME280;1003;48.002;7.788;2023-05-01T01:12:55;98835.19;;;12.23;100.00
5595;BME280;1003;48.002;7.788;2023-05-01T01:15:32;98830.94;;;12.25;100.00
5595;BME280;1003;48.002;7.788;2023-05-01T01:18:08;98815.00;;;12.25;100.00
5595;BME280;1003;48.002;7.788;2023-05-01T01:20:44;98812.47;;;12.25;100.00
5595;BME280;1003;48.002;7.788;2023-05-01T01:27:05;98824.34;;;12.20;100.00
5595;BME280;1003;48.002;7.788;2023-05-01T01:29:50;98832.00;;;12.15;100.00
5595;BME280;1003;48.002;7.788;2023-05-01T01:32:55;98837.25;;;12.06;100.00
5595;BME280;1003;48.002;7.788;2023-05-01T01:35:30;98868.44;;;12.00;100.00
5595;BME280;1003;48.002;7.788;2023-05-01T01:38:05;98876.00;;;11.99;100.00
5595;BME280;1003;48.002;7.788;2023-05-01T01:40:43;98885.25;;;11.98;100.00
5595;BME280;1003;48.002;7.788;2023-05-01T01:43:18;98923.94;;;11.94;100.00
5595;BME280;1003;48.002;7.788;2023-05-01T01:45:53;98976.09;;;11.91;100.00
5595;BME280;1003;48.002;7.788;2023-05-01T01:48:30;99022.28;;;11.90;100.00
5595;BME280;1003;48.002;7.788;2023-05-01T01:51:04;99053.34;;;11.90;100.00
5595;BME280;1003;48.002;7.788;2023-05-01T01:53:33;99071.81;;;11.88;100.00
5595;BME280;1003;48.002;7.788;2023-05-01T01:56:05;99087.81;;;11.87;100.00
5595;BME280;1003;48.002;7.788;2023-05-01T01:58:35;99144.09;;;11.82;100.00
5595;BME280;1003;48.002;7.788;2023-05-01T02:01:04;99203.88;;;11.67;100.00
5595;BME280;1003;48.002;7.788;2023-05-01T02:03:33;99237.59;;;11.58;100.00
5595;BME280;1003;48.002;7.788;2023-05-01T02:06:05;99267.03;;;11.53;100.00
5595;BME280;1003;48.002;7.788;2023-05-01T02:08:35;99288.94;;;11.43;100.00
5595;BME280;1003;48.002;7.788;2023-05-01T02:11:05;99304.94;;;11.39;100.00
5595;BME280;1003;48.002;7.788;2023-05-01T02:13:35;99294.88;;;11.38;100.00
5595;BME280;1003;48.002;7.788;2023-05-01T02:16:06;99296.59;;;11.36;100.00
5595;BME280;1003;48.002;7.788;2023-05-01T02:18:35;99317.66;;;11.27;100.00
5595;BME280;1003;48.002;7.788;2023-05-01T02:21:06;99342.88;;;11.21;100.00
5595;BME280;1003;48.002;7.788;2023-05-01T02:23:34;99353.00;;;11.15;100.00
5595;BME280;1003;48.002;7.788;2023-05-01T02:26:03;99373.97;;;11.12;100.00
5595;BME280;1003;48.002;7.788;2023-05-01T02:28:32;99385.00;;;10.99;100.00
5595;BME280;1003;48.002;7.788;2023-05-01T02:31:00;99410.22;;;10.91;100.00
5595;BME280;1003;48.002;7.788;2023-05-01T02:33:27;99426.19;;;10.86;100.00
5595;BME280;1003;48.002;7.788;2023-05-01T02:35:54;99444.56;;;10.91;100.00
5595;BME280;1003;48.002;7.788;2023-05-01T02:38:22;99458.81;;;10.92;100.00
5595;BME280;1003;48.002;7.788;2023-05-01T02:40:53;99468.09;;;10.88;100.00
5595;BME280;1003;48.002;7.788;2023-05-01T02:43:24;99473.09;;;10.87;100.00
5595;BME280;1003;48.002;7.788;2023-05-01T02:45:53;99478.94;;;10.92;100.00
5595;BME280;1003;48.002;7.788;2023-05-01T02:48:25;99484.84;;;10.86;100.00
5595;BME280;1003;48.002;7.788;2023-05-01T02:50:55;99492.34;;;10.94;100.00
5595;BME280;1003;48.002;7.788;2023-05-01T02:53:24;99502.31;;;11.03;100.00
5595;BME280;1003;48.002;7.788;2023-05-01T02:55:51;99505.63;;;11.13;100.00
5595;BME280;1003;48.002;7.788;2023-05-01T02:58:19;99503.06;;;11.22;100.00
5595;BME280;1003;48.002;7.788;2023-05-01T03:00:48;99508.00;;;11.29;100.00
5595;BME280;1003;48.002;7.788;2023-05-01T03:03:15;99502.91;;;11.39;100.00
5595;BME280;1003;48.002;7.788;2023-05-01T03:05:42;99502.84;;;11.48;100.00
5595;BME280;1003;48.002;7.788;2023-05-01T03:08:10;99491.91;;;11.52;100.00
5595;BME280;1003;48.002;7.788;2023-05-01T03:10:40;99481.75;;;11.60;100.00
5595;BME280;1003;48.002;7.788;2023-05-01T03:13:08;99469.97;;;11.63;100.00
5595;BME280;1003;48.002;7.788;2023-05-01T03:15:36;99460.66;;;11.71;100.00
5595;BME280;1003;48.002;7.788;2023-05-01T03:18:03;99453.94;;;11.73;100.00
5595;BME280;1003;48.002;7.788;2023-05-01T03:20:31;99441.31;;;11.75;100.00
5595;BME280;1003;48.002;7.788;2023-05-01T03:22:58;99427.91;;;11.74;100.00
5595;BME280;1003;48.002;7.788;2023-05-01T03:25:25;99416.16;;;11.73;100.00
5595;BME280;1003;48.002;7.788;2023-05-01T03:27:54;99412.88;;;11.68;100.00
5595;BME280;1003;48.002;7.788;2023-05-01T03:30:21;99407.81;;;11.67;100.00
5595;BME280;1003;48.002;7.788;2023-05-01T03:32:48;99400.31;;;11.62;100.00
5595;BME280;1003;48.002;7.788;2023-05-01T03:35:15;99392.00;;;11.57;100.00
5595;BME280;1003;48.002;7.788;2023-05-01T03:37:43;99391.16;;;11.58;100.00
5595;BME280;1003;48.002;7.788;2023-05-01T03:40:11;99387.81;;;11.54;100.00
5595;BME280;1003;48.002;7.788;2023-05-01T03:42:38;99397.16;;;11.45;100.00
5595;BME280;1003;48.002;7.788;2023-05-01T03:45:08;99402.19;;;11.45;100.00
5595;BME280;1003;48.002;7.788;2023-05-01T03:47:36;99408.09;;;11.41;100.00
5595;BME280;1003;48.002;7.788;2023-05-01T03:50:04;99404.75;;;11.40;100.00
5595;BME280;1003;48.002;7.788;2023-05-01T03:52:31;99405.66;;;11.36;100.00
5595;BME280;1003;48.002;7.788;2023-05-01T03:54:58;99405.63;;;11.35;100.00
5595;BME280;1003;48.002;7.788;2023-05-01T03:57:25;99411.50;;;11.35;100.00
5595;BME280;1003;48.002;7.788;2023-05-01T03:59:52;99411.50;;;11.37;100.00
5595;BME280;1003;48.002;7.788;2023-05-01T04:02:21;99403.94;;;11.38;100.00
5595;BME280;1003;48.002;7.788;2023-05-01T04:04:48;99413.13;;;11.42;100.00
5595;BME280;1003;48.002;7.788;2023-05-01T04:07:16;99410.56;;;11.47;100.00
5595;BME280;1003;48.002;7.788;2023-05-01T04:09:43;99403.03;;;11.44;100.00
5595;BME280;1003;48.002;7.788;2023-05-01T04:12:10;99416.44;;;11.47;100.00
5595;BME280;1003;48.002;7.788;2023-05-01T04:14:37;99424.78;;;11.49;100.00
5595;BME280;1003;48.002;7.788;2023-05-01T04:17:04;99424.78;;;11.52;100.00
5595;BME280;1003;48.002;7.788;2023-05-01T04:19:32;99428.09;;;11.54;100.00
5595;BME280;1003;48.002;7.788;2023-05-01T04:22:00;99431.44;;;11.55;100.00
5595;BME280;1003;48.002;7.788;2023-05-01T04:24:27;99424.72;;;11.55;100.00
5595;BME280;1003;48.002;7.788;2023-05-01T04:26:54;99432.28;;;11.57;100.00
5595;BME280;1003;48.002;7.788;2023-05-01T04:29:23;99433.09;;;11.59;100.00
5595;BME280;1003;48.002;7.788;2023-05-01T04:31:50;99428.06;;;11.59;100.00
5595;BME280;1003;48.002;7.788;2023-05-01T04:34:17;99428.88;;;11.60;100.00
5595;BME280;1003;48.002;7.788;2023-05-01T04:36:45;99423.84;;;11.63;100.00
5595;BME280;1003;48.002;7.788;2023-05-01T04:39:12;99428.00;;;11.65;100.00
5595;BME280;1003;48.002;7.788;2023-05-01T04:41:39;99424.63;;;11.68;100.00
5595;BME280;1003;48.002;7.788;2023-05-01T04:44:06;99423.72;;;11.72;100.00
5595;BME280;1003;48.002;7.788;2023-05-01T04:46:33;99426.22;;;11.75;100.00
5595;BME280;1003;48.002;7.788;2023-05-01T04:49:00;99434.56;;;11.80;100.00
5595;BME280;1003;48.002;7.788;2023-05-01T04:51:28;99434.50;;;11.86;100.00
5595;BME280;1003;48.002;7.788;2023-05-01T04:53:57;99427.69;;;11.94;100.00
5595;BME280;1003;48.002;7.788;2023-05-01T04:56:24;99431.00;;;11.98;100.00
5595;BME280;1003;48.002;7.788;2023-05-01T04:58:52;99419.25;;;11.98;100.00
5595;BME280;1003;48.002;7.788;2023-05-01T05:01:19;99420.88;;;12.04;100.00
5595;BME280;1003;48.002;7.788;2023-05-01T05:03:46;99420.81;;;12.08;100.00
5595;BME280;1003;48.002;7.788;2023-05-01T05:06:13;99414.91;;;12.09;100.00
5595;BME280;1003;48.002;7.788;2023-05-01T05:08:40;99417.38;;;12.14;100.00
5595;BME280;1003;48.002;7.788;2023-05-01T05:11:08;99416.53;;;12.17;100.00
5595;BME280;1003;48.002;7.788;2023-05-01T05:13:35;99414.84;;;12.17;100.00
5595;BME280;1003;48.002;7.788;2023-05-01T05:16:03;99407.34;;;12.09;100.00
5595;BME280;1003;48.002;7.788;2023-05-01T05:18:30;99413.31;;;12.04;100.00
5595;BME280;1003;48.002;7.788;2023-05-01T05:20:57;99424.22;;;12.04;100.00
5595;BME280;1003;48.002;7.788;2023-05-01T05:23:24;99436.72;;;12.12;100.00
5595;BME280;1003;48.002;7.788;2023-05-01T05:25:51;99431.81;;;12.01;100.00
5595;BME280;1003;48.002;7.788;2023-05-01T05:28:19;99438.41;;;12.10;100.00
5595;BME280;1003;48.002;7.788;2023-05-01T05:30:46;99446.75;;;12.17;100.00
5595;BME280;1003;48.002;7.788;2023-05-01T05:33:14;99442.66;;;12.08;100.00
5595;BME280;1003;48.002;7.788;2023-05-01T05:35:41;99453.63;;;12.05;100.00
5595;BME280;1003;48.002;7.788;2023-05-01T05:38:08;99466.84;;;12.21;100.00
5595;BME280;1003;48.002;7.788;2023-05-01T05:40:35;99472.75;;;12.22;100.00
5595;BME280;1003;48.002;7.788;2023-05-01T05:43:02;99476.88;;;12.27;100.00
5595;BME280;1003;48.002;7.788;2023-05-01T05:45:32;99492.78;;;12.29;100.00
5595;BME280;1003;48.002;7.788;2023-05-01T05:48:00;99494.50;;;12.26;100.00
5595;BME280;1003;48.002;7.788;2023-05-01T05:50:27;99502.94;;;12.23;100.00
5595;BME280;1003;48.002;7.788;2023-05-01T05:52:54;99516.41;;;12.21;100.00
5595;BME280;1003;48.002;7.788;2023-05-01T05:55:21;99531.50;;;12.24;100.00
5595;BME280;1003;48.002;7.788;2023-05-01T05:57:48;99539.91;;;12.24;100.00
5595;BME280;1003;48.002;7.788;2023-05-01T06:00:17;99544.97;;;12.20;100.00
5595;BME280;1003;48.002;7.788;2023-05-01T06:02:45;99556.72;;;12.21;100.00
5595;BME280;1003;48.002;7.788;2023-05-01T06:05:12;99558.47;;;12.17;100.00
5595;BME280;1003;48.002;7.788;2023-05-01T06:07:39;99566.00;;;12.19;100.00
5595;BME280;1003;48.002;7.788;2023-05-01T06:10:08;99569.41;;;12.16;100.00
5595;BME280;1003;48.002;7.788;2023-05-01T06:12:36;99578.63;;;12.16;100.00
5595;BME280;1003;48.002;7.788;2023-05-01T06:15:05;99576.09;;;12.17;100.00
5595;BME280;1003;48.002;7.788;2023-05-01T06:17:32;99580.22;;;12.24;100.00
5595;BME280;1003;48.002;7.788;2023-05-01T06:20:02;99580.25;;;12.20;100.00
5595;BME280;1003;48.002;7.788;2023-05-01T06:22:31;99580.25;;;12.23;100.00
5595;BME280;1003;48.002;7.788;2023-05-01T06:24:58;99581.03;;;12.26;100.00
5595;BME280;1003;48.002;7.788;2023-05-01T06:27:25;99589.44;;;12.28;100.00
5595;BME280;1003;48.002;7.788;2023-05-01T06:29:52;99593.59;;;12.32;100.00
5595;BME280;1003;48.002;7.788;2023-05-01T06:32:19;99603.47;;;12.48;100.00
5595;BME280;1003;48.002;7.788;2023-05-01T06:34:46;99600.97;;;12.48;100.00
5595;BME280;1003;48.002;7.788;2023-05-01T06:37:15;99603.44;;;12.54;100.00
5595;BME280;1003;48.002;7.788;2023-05-01T06:39:42;99594.16;;;12.56;100.00
5595;BME280;1003;48.002;7.788;2023-05-01T06:42:09;99600.78;;;12.63;100.00
5595;BME280;1003;48.002;7.788;2023-05-01T06:44:40;99594.06;;;12.65;100.00
5595;BME280;1003;48.002;7.788;2023-05-01T06:47:07;99591.47;;;12.70;100.00
5595;BME280;1003;48.002;7.788;2023-05-01T06:49:34;99600.00;;;12.58;100.00
5595;BME280;1003;48.002;7.788;2023-05-01T06:52:01;99625.19;;;12.61;100.00
5595;BME280;1003;48.002;7.788;2023-05-01T06:54:30;99641.16;;;12.65;100.00
5595;BME280;1003;48.002;7.788;2023-05-01T06:56:57;99655.47;;;12.61;100.00
5595;BME280;1003;48.002;7.788;2023-05-01T06:59:24;99668.00;;;12.67;100.00
5595;BME280;1003;48.002;7.788;2023-05-01T07:01:52;99681.50;;;12.65;100.00
5595;BME280;1003;48.002;7.788;2023-05-01T07:04:19;99693.34;;;12.55;100.00
5595;BME280;1003;48.002;7.788;2023-05-01T07:06:46;99705.94;;;12.56;100.00
5595;BME280;1003;48.002;7.788;2023-05-01T07:09:13;99705.25;;;12.38;100.00
5595;BME280;1003;48.002;7.788;2023-05-01T07:11:41;99709.59;;;12.23;100.00
5595;BME280;1003;48.002;7.788;2023-05-01T07:14:09;99720.59;;;12.16;100.00
5595;BME280;1003;48.002;7.788;2023-05-01T07:16:36;99744.75;;;12.37;100.00
5595;BME280;1003;48.002;7.788;2023-05-01T07:19:03;99752.22;;;12.48;100.00
5595;BME280;1003;48.002;7.788;2023-05-01T07:21:30;99750.47;;;12.57;100.00
5595;BME280;1003;48.002;7.788;2023-05-01T07:23:57;99763.94;;;12.53;100.00
5595;BME280;1003;48.002;7.788;2023-05-01T07:26:26;99764.91;;;12.43;100.00
5595;BME280;1003;48.002;7.788;2023-05-01T07:28:54;99772.41;;;12.48;100.00
5595;BME280;1003;48.002;7.788;2023-05-01T07:31:21;99783.41;;;12.38;100.00
5595;BME280;1003;48.002;7.788;2023-05-01T07:33:48;99776.72;;;12.38;100.00
5595;BME280;1003;48.002;7.788;2023-05-01T07:36:15;99783.34;;;12.47;100.00
5595;BME280;1003;48.002;7.788;2023-05-01T07:38:45;99790.00;;;12.57;100.00
5595;BME280;1003;48.002;7.788;2023-05-01T07:41:12;99791.63;;;12.63;100.00
5595;BME280;1003;48.002;7.788;2023-05-01T07:43:39;99797.47;;;12.66;100.00
5595;BME280;1003;48.002;7.788;2023-05-01T07:46:08;99804.22;;;12.64;100.00
5595;BME280;1003;48.002;7.788;2023-05-01T07:48:35;99804.91;;;12.83;100.00
5595;BME280;1003;48.002;7.788;2023-05-01T07:51:03;99807.31;;;12.94;100.00
5595;BME280;1003;48.002;7.788;2023-05-01T07:53:30;99819.88;;;13.00;100.00
5595;BME280;1003;48.002;7.788;2023-05-01T07:56:04;99814.72;;;13.07;100.00
5595;BME280;1003;48.002;7.788;2023-05-01T07:58:33;99823.09;;;13.12;100.00
5595;BME280;1003;48.002;7.788;2023-05-01T08:01:01;99811.34;;;13.11;100.00
5595;BME280;1003;48.002;7.788;2023-05-01T08:03:29;99798.75;;;13.10;100.00
5595;BME280;1003;48.002;7.788;2023-05-01T08:05:57;99782.66;;;13.20;100.00
5595;BME280;1003;48.002;7.788;2023-05-01T08:08:24;99771.63;;;13.29;100.00
5595;BME280;1003;48.002;7.788;2023-05-01T08:10:52;99751.34;;;13.36;100.00
5595;BME280;1003;48.002;7.788;2023-05-01T08:13:19;99732.88;;;13.33;100.00
5595;BME280;1003;48.002;7.788;2023-05-01T08:15:46;99733.63;;;13.41;100.00
5595;BME280;1003;48.002;7.788;2023-05-01T08:18:13;99721.00;;;13.41;100.00
5595;BME280;1003;48.002;7.788;2023-05-01T08:20:46;99724.00;;;13.68;100.00
5595;BME280;1003;48.002;7.788;2023-05-01T08:23:14;99714.66;;;13.74;100.00
5595;BME280;1003;48.002;7.788;2023-05-01T08:25:42;99715.34;;;13.82;100.00
5595;BME280;1003;48.002;7.788;2023-05-01T08:28:12;99711.75;;;14.00;100.00
5595;BME280;1003;48.002;7.788;2023-05-01T08:30:40;99698.28;;;14.00;100.00
5595;BME280;1003;48.002;7.788;2023-05-01T08:33:08;99691.06;;;14.28;100.00
5595;BME280;1003;48.002;7.788;2023-05-01T08:35:36;99680.53;;;14.54;100.00
5595;BME280;1003;48.002;7.788;2023-05-01T08:38:04;99667.28;;;14.84;100.00
5595;BME280;1003;48.002;7.788;2023-05-01T08:40:35;99643.44;;;14.96;100.00
5595;BME280;1003;48.002;7.788;2023-05-01T08:43:03;99627.63;;;15.25;100.00
5595;BME280;1003;48.002;7.788;2023-05-01T08:45:32;99584.22;;;15.39;100.00
5595;BME280;1003;48.002;7.788;2023-05-01T08:48:05;99546.56;;;15.61;100.00
5595;BME280;1003;48.002;7.788;2023-05-01T08:50:34;99513.50;;;15.98;100.00
5595;BME280;1003;48.002;7.788;2023-05-01T08:53:06;99487.63;;;16.18;100.00
5595;BME280;1003;48.002;7.788;2023-05-01T08:55:36;99480.53;;;16.29;100.00
5595;BME280;1003;48.002;7.788;2023-05-01T08:58:05;99470.81;;;16.73;100.00
5595;BME280;1003;48.002;7.788;2023-05-01T09:00:36;99386.84;;;16.52;100.00
5595;BME280;1003;48.002;7.788;2023-05-01T09:03:06;99360.47;;;16.85;100.00
5595;BME280;1003;48.002;7.788;2023-05-01T09:05:35;99331.63;;;17.11;100.00
5595;BME280;1003;48.002;7.788;2023-05-01T09:08:02;99326.91;;;17.48;100.00
5595;BME280;1003;48.002;7.788;2023-05-01T09:10:32;99325.84;;;17.55;100.00
5595;BME280;1003;48.002;7.788;2023-05-01T09:13:01;99309.19;;;17.23;100.00
5595;BME280;1003;48.002;7.788;2023-05-01T09:15:32;99301.94;;;17.59;100.00
5595;BME280;1003;48.002;7.788;2023-05-01T09:18:00;99265.34;;;17.64;100.00
5595;BME280;1003;48.002;7.788;2023-05-01T09:20:28;99293.78;;;17.97;100.00
5595;BME280;1003;48.002;7.788;2023-05-01T09:22:55;99316.75;;;18.59;100.00
5595;BME280;1003;48.002;7.788;2023-05-01T09:25:23;99264.16;;;18.80;100.00
5595;BME280;1003;48.002;7.788;2023-05-01T09:27:51;99188.66;;;18.79;100.00
5595;BME280;1003;48.002;7.788;2023-05-01T09:30:33;99159.94;;;18.55;100.00
5595;BME280;1003;48.002;7.788;2023-05-01T09:33:05;99192.41;;;18.50;100.00
5595;BME280;1003;48.002;7.788;2023-05-01T09:35:48;99191.75;;;18.45;100.00
5595;BME280;1003;48.002;7.788;2023-05-01T09:38:20;99205.81;;;19.13;100.00
5595;BME280;1003;48.002;7.788;2023-05-01T09:40:48;99182.25;;;19.08;100.00
5595;BME280;1003;48.002;7.788;2023-05-01T09:43:25;99209.22;;;18.94;100.00
5595;BME280;1003;48.002;7.788;2023-05-01T09:46:01;99202.28;;;18.97;100.00
5595;BME280;1003;48.002;7.788;2023-05-01T09:48:29;99146.38;;;17.51;100.00
5595;BME280;1003;48.002;7.788;2023-05-01T09:50:56;99201.97;;;18.25;100.00
5595;BME280;1003;48.002;7.788;2023-05-01T09:53:37;99211.59;;;19.17;100.00
5595;BME280;1003;48.002;7.788;2023-05-01T09:56:05;99152.66;;;18.68;100.00
5595;BME280;1003;48.002;7.788;2023-05-01T09:58:33;99142.63;;;18.84;100.00
5595;BME280;1003;48.002;7.788;2023-05-01T10:01:01;99141.91;;;18.80;100.00
5595;BME280;1003;48.002;7.788;2023-05-01T10:03:32;99158.63;;;18.47;100.00
5595;BME280;1003;48.002;7.788;2023-05-01T10:05:59;99157.34;;;17.96;100.00
5595;BME280;1003;48.002;7.788;2023-05-01T10:08:44;99169.72;;;18.46;100.00
5595;BME280;1003;48.002;7.788;2023-05-01T10:11:12;99141.88;;;19.37;100.00
5595;BME280;1003;48.002;7.788;2023-05-01T10:13:40;99127.34;;;19.92;100.00
5595;BME280;1003;48.002;7.788;2023-05-01T10:16:29;99054.06;;;19.08;100.00
5595;BME280;1003;48.002;7.788;2023-05-01T10:18:57;99021.63;;;19.11;100.00
5595;BME280;1003;48.002;7.788;2023-05-01T10:21:26;99033.56;;;19.98;100.00
5595;BME280;1003;48.002;7.788;2023-05-01T10:23:58;98968.19;;;19.95;100.00
5595;BME280;1003;48.002;7.788;2023-05-01T10:26:26;98975.34;;;20.69;100.00
5595;BME280;1003;48.002;7.788;2023-05-01T10:28:55;98957.19;;;20.89;100.00
5595;BME280;1003;48.002;7.788;2023-05-01T10:31:24;98927.44;;;19.78;100.00
5595;BME280;1003;48.002;7.788;2023-05-01T10:33:53;98910.31;;;19.80;100.00
5595;BME280;1003;48.002;7.788;2023-05-01T10:36:24;98825.78;;;20.33;100.00
5595;BME280;1003;48.002;7.788;2023-05-01T10:38:53;98750.75;;;20.06;100.00
5595;BME280;1003;48.002;7.788;2023-05-01T10:42:01;98694.22;;;20.28;100.00
5595;BME280;1003;48.002;7.788;2023-05-01T10:44:31;98648.91;;;20.17;100.00
5595;BME280;1003;48.002;7.788;2023-05-01T10:46:59;98636.84;;;20.35;100.00
5595;BME280;1003;48.002;7.788;2023-05-01T10:50:02;98646.06;;;20.66;100.00
5595;BME280;1003;48.002;7.788;2023-05-01T10:52:30;98616.06;;;20.55;100.00
5595;BME280;1003;48.002;7.788;2023-05-01T10:55:31;98599.81;;;20.85;100.00
5595;BME280;1003;48.002;7.788;2023-05-01T10:57:58;98604.50;;;21.05;100.00
5595;BME280;1003;48.002;7.788;2023-05-01T11:00:27;98606.59;;;21.80;100.00
5595;BME280;1003;48.002;7.788;2023-05-01T11:03:33;98595.13;;;21.18;100.00
5595;BME280;1003;48.002;7.788;2023-05-01T11:06:07;98599.16;;;20.81;100.00
5595;BME280;1003;48.002;7.788;2023-05-01T11:08:36;98597.84;;;20.61;100.00
5595;BME280;1003;48.002;7.788;2023-05-01T11:11:45;98596.50;;;21.24;100.00
5595;BME280;1003;48.002;7.788;2023-05-01T11:14:14;98602.97;;;21.30;100.00
5595;BME280;1003;48.002;7.788;2023-05-01T11:16:45;98597.72;;;21.98;100.00
5595;BME280;1003;48.002;7.788;2023-05-01T11:19:44;98591.38;;;22.42;100.00
5595;BME280;1003;48.002;7.788;2023-05-01T11:22:15;98606.41;;;22.08;100.00
5595;BME280;1003;48.002;7.788;2023-05-01T11:24:43;98612.75;;;21.37;100.00
5595;BME280;1003;48.002;7.788;2023-05-01T11:27:14;98608.75;;;21.19;100.00
5595;BME280;1003;48.002;7.788;2023-05-01T11:29:44;98615.03;;;22.07;100.00
5595;BME280;1003;48.002;7.788;2023-05-01T11:32:23;98634.41;;;22.37;100.00
5595;BME280;1003;48.002;7.788;2023-05-01T11:34:52;98644.13;;;22.57;100.00
5595;BME280;1003;48.002;7.788;2023-05-01T11:37:19;98688.47;;;22.58;100.00
5595;BME280;1003;48.002;7.788;2023-05-01T11:39:50;98701.16;;;21.81;100.00
5595;BME280;1003;48.002;7.788;2023-05-01T11:42:20;98669.34;;;21.98;100.00
5595;BME280;1003;48.002;7.788;2023-05-01T11:45:08;98654.75;;;22.64;100.00
5595;BME280;1003;48.002;7.788;2023-05-01T11:47:38;98672.13;;;23.46;100.00
5595;BME280;1003;48.002;7.788;2023-05-01T11:50:08;98695.03;;;23.61;100.00
5595;BME280;1003;48.002;7.788;2023-05-01T11:52:44;98684.38;;;23.30;100.00
5595;BME280;1003;48.002;7.788;2023-05-01T11:55:11;98683.44;;;22.94;100.00
5595;BME280;1003;48.002;7.788;2023-05-01T11:57:47;98680.53;;;22.10;100.00
5595;BME280;1003;48.002;7.788;2023-05-01T12:00:24;98684.34;;;22.17;100.00
5595;BME280;1003;48.002;7.788;2023-05-01T12:02:58;98706.41;;;22.45;100.00
5595;BME280;1003;48.002;7.788;2023-05-01T12:05:27;98736.81;;;22.37;100.00
5595;BME280;1003;48.002;7.788;2023-05-01T12:08:10;98728.72;;;22.17;100.00
5595;BME280;1003;48.002;7.788;2023-05-01T12:10:40;98716.25;;;21.98;100.00
5595;BME280;1003;48.002;7.788;2023-05-01T12:13:11;98705.28;;;22.49;100.00
5595;BME280;1003;48.002;7.788;2023-05-01T12:15:41;98694.09;;;22.75;100.00
5595;BME280;1003;48.002;7.788;2023-05-01T12:18:12;98691.66;;;22.99;100.00
5595;BME280;1003;48.002;7.788;2023-05-01T12:20:41;98682.13;;;22.89;100.00
5595;BME280;1003;48.002;7.788;2023-05-01T12:23:11;98699.13;;;22.90;100.00
5595;BME280;1003;48.002;7.788;2023-05-01T12:25:39;98693.81;;;22.29;100.00
5595;BME280;1003;48.002;7.788;2023-05-01T12:28:09;98689.28;;;22.33;100.00
5595;BME280;1003;48.002;7.788;2023-05-01T12:30:38;98693.06;;;22.27;100.00
5595;BME280;1003;48.002;7.788;2023-05-01T12:33:12;98701.38;;;21.22;100.00
5595;BME280;1003;48.002;7.788;2023-05-01T12:35:41;98696.66;;;21.58;100.00
5595;BME280;1003;48.002;7.788;2023-05-01T12:38:12;98692.88;;;21.36;100.00
5595;BME280;1003;48.002;7.788;2023-05-01T12:40:50;98704.28;;;21.72;100.00
5595;BME280;1003;48.002;7.788;2023-05-01T12:43:19;98711.31;;;21.41;100.00
5595;BME280;1003;48.002;7.788;2023-05-01T12:45:51;98705.03;;;21.18;100.00
5595;BME280;1003;48.002;7.788;2023-05-01T12:48:20;98731.59;;;21.44;100.00
5595;BME280;1003;48.002;7.788;2023-05-01T12:50:49;98736.72;;;21.30;100.00
5595;BME280;1003;48.002;7.788;2023-05-01T12:53:20;98733.84;;;20.93;100.00
5595;BME280;1003;48.002;7.788;2023-05-01T12:55:49;98746.13;;;21.15;100.00
5595;BME280;1003;48.002;7.788;2023-05-01T12:58:17;98738.84;;;21.38;100.00
5595;BME280;1003;48.002;7.788;2023-05-01T13:00:47;98740.75;;;21.34;100.00
5595;BME280;1003;48.002;7.788;2023-05-01T13:03:15;98743.75;;;21.68;100.00
5595;BME280;1003;48.002;7.788;2023-05-01T13:05:53;98737.28;;;21.89;100.00
5595;BME280;1003;48.002;7.788;2023-05-01T13:08:29;98730.81;;;21.15;100.00
5595;BME280;1003;48.002;7.788;2023-05-01T13:10:59;98740.09;;;20.74;100.00
5595;BME280;1003;48.002;7.788;2023-05-01T13:13:29;98740.47;;;20.82;100.00
5595;BME280;1003;48.002;7.788;2023-05-01T13:16:07;98741.19;;;20.69;100.00
5595;BME280;1003;48.002;7.788;2023-05-01T13:18:45;98746.03;;;20.30;100.00
5595;BME280;1003;48.002;7.788;2023-05-01T13:21:15;98744.59;;;20.40;100.00
5595;BME280;1003;48.002;7.788;2023-05-01T13:23:52;98747.94;;;20.56;100.00
5595;BME280;1003;48.002;7.788;2023-05-01T13:26:25;98746.63;;;20.49;100.00
5595;BME280;1003;48.002;7.788;2023-05-01T13:28:55;98759.09;;;20.39;100.00